FIN4BX EFHK-EFKT
Flight info
| Callsign | FIN4BX |
|---|---|
| Flight time | 1h 14m |
| Altitude | 36000 |
| Route | TEVRU Y75 EVIMI |
| Aircraft | A321/M-SDE3FGHIRWY/LB1 |
Departure
| Time | 2026-04-16 12:19 |
|---|---|
| Airport | Helsinki Vantaa Airport (EFHK) |
Arrival
| Time | 2026-04-16 13:33 |
|---|---|
| Airport | Kittilä International Airport (EFKT) |
| Time | Latitude | Longitude | Altitude | Speed | Heading |
|---|---|---|---|---|---|
| 2026-04-16 12:02 | 60.31804 | 24.96386 | 167 ft | 0 kts | 137° |
| 2026-04-16 12:09 | 60.31813 | 24.96371 | 167 ft | 4 kts | 141° |
| 2026-04-16 12:10 | 60.31834 | 24.96342 | 167 ft | 4 kts | 161° |
| 2026-04-16 12:10 | 60.31857 | 24.96338 | 167 ft | 4 kts | 220° |
| 2026-04-16 12:10 | 60.31863 | 24.96351 | 167 ft | 0 kts | 253° |
| 2026-04-16 12:12 | 60.31859 | 24.96326 | 167 ft | 5 kts | 255° |
| 2026-04-16 12:12 | 60.31853 | 24.96238 | 167 ft | 6 kts | 270° |
| 2026-04-16 12:12 | 60.31860 | 24.96178 | 167 ft | 5 kts | 296° |
| 2026-04-16 12:13 | 60.31912 | 24.96056 | 167 ft | 17 kts | 309° |
| 2026-04-16 12:13 | 60.31886 | 24.95900 | 169 ft | 13 kts | 221° |
| 2026-04-16 12:13 | 60.31819 | 24.95717 | 170 ft | 22 kts | 229° |
| 2026-04-16 12:13 | 60.31714 | 24.95485 | 171 ft | 22 kts | 227° |
| 2026-04-16 12:14 | 60.31611 | 24.95258 | 170 ft | 22 kts | 227° |
| 2026-04-16 12:14 | 60.31511 | 24.95042 | 169 ft | 21 kts | 227° |
| 2026-04-16 12:14 | 60.31406 | 24.94809 | 165 ft | 26 kts | 227° |
| 2026-04-16 12:14 | 60.31266 | 24.94505 | 159 ft | 30 kts | 229° |
| 2026-04-16 12:15 | 60.31129 | 24.94197 | 157 ft | 30 kts | 226° |
| 2026-04-16 12:15 | 60.31015 | 24.93942 | 159 ft | 21 kts | 231° |
| 2026-04-16 12:15 | 60.30973 | 24.93784 | 160 ft | 12 kts | 279° |
| 2026-04-16 12:15 | 60.30986 | 24.93736 | 160 ft | 0 kts | 313° |
| 2026-04-16 12:17 | 60.31010 | 24.93686 | 160 ft | 12 kts | 313° |
| 2026-04-16 12:17 | 60.31064 | 24.93613 | 158 ft | 15 kts | 345° |
| 2026-04-16 12:18 | 60.31150 | 24.93685 | 158 ft | 1 kts | 43° |
| 2026-04-16 12:18 | 60.31214 | 24.93824 | 160 ft | 43 kts | 47° |
| 2026-04-16 12:18 | 60.31429 | 24.94296 | 162 ft | 90 kts | 47° |
| 2026-04-16 12:18 | 60.31986 | 24.95524 | 173 ft | 144 kts | 47° |
| 2026-04-16 12:19 | 60.32739 | 24.97173 | 568 ft | 156 kts | 46° |
| 2026-04-16 12:19 | 60.33465 | 24.98766 | 1341 ft | 153 kts | 50° |
| 2026-04-16 12:19 | 60.34213 | 25.00427 | 1770 ft | 170 kts | 51° |
| 2026-04-16 12:19 | 60.35045 | 25.02286 | 2020 ft | 190 kts | 51° |
| 2026-04-16 12:20 | 60.36002 | 25.04419 | 2212 ft | 215 kts | 51° |
| 2026-04-16 12:20 | 60.37049 | 25.06743 | 2615 ft | 234 kts | 51° |
| 2026-04-16 12:20 | 60.38179 | 25.09247 | 3312 ft | 245 kts | 51° |
| 2026-04-16 12:20 | 60.39452 | 25.11641 | 3856 ft | 257 kts | 36° |
| 2026-04-16 12:21 | 60.41156 | 25.12846 | 4135 ft | 270 kts | 8° |
| 2026-04-16 12:21 | 60.43043 | 25.12867 | 5085 ft | 272 kts | 5° |
| 2026-04-16 12:21 | 60.44972 | 25.12900 | 5941 ft | 275 kts | 5° |
| 2026-04-16 12:21 | 60.46848 | 25.12972 | 6737 ft | 280 kts | 5° |
| 2026-04-16 12:22 | 60.48897 | 25.13064 | 7497 ft | 286 kts | 4° |
| 2026-04-16 12:22 | 60.50904 | 25.12589 | 8209 ft | 296 kts | 347° |
| 2026-04-16 12:22 | 60.52837 | 25.11031 | 8928 ft | 303 kts | 335° |
| 2026-04-16 12:22 | 60.54749 | 25.09165 | 9659 ft | 308 kts | 335° |
| 2026-04-16 12:23 | 60.56701 | 25.07267 | 10347 ft | 314 kts | 335° |
| 2026-04-16 12:23 | 60.58744 | 25.05289 | 10567 ft | 336 kts | 335° |
| 2026-04-16 12:23 | 60.60942 | 25.03165 | 10836 ft | 353 kts | 335° |
| 2026-04-16 12:23 | 60.63180 | 25.00996 | 11424 ft | 359 kts | 335° |
| 2026-04-16 12:24 | 60.65443 | 24.98796 | 12122 ft | 361 kts | 335° |
| 2026-04-16 12:24 | 60.67712 | 24.96586 | 12851 ft | 363 kts | 335° |
| 2026-04-16 12:24 | 60.70002 | 24.94356 | 13573 ft | 365 kts | 336° |
| 2026-04-16 12:24 | 60.72303 | 24.92109 | 14249 ft | 368 kts | 336° |
| 2026-04-16 12:25 | 60.74615 | 24.89843 | 14867 ft | 370 kts | 336° |
| 2026-04-16 12:25 | 60.76943 | 24.87560 | 15483 ft | 373 kts | 336° |
| 2026-04-16 12:25 | 60.79302 | 24.85301 | 16090 ft | 375 kts | 340° |
| 2026-04-16 12:25 | 60.81794 | 24.83754 | 16673 ft | 375 kts | 351° |
| 2026-04-16 12:26 | 60.84387 | 24.83202 | 17249 ft | 375 kts | 2° |
| 2026-04-16 12:26 | 60.86993 | 24.83603 | 17830 ft | 376 kts | 9° |
| 2026-04-16 12:26 | 60.89627 | 24.84238 | 18439 ft | 378 kts | 9° |
| 2026-04-16 12:26 | 60.92221 | 24.84860 | 18980 ft | 381 kts | 9° |
| 2026-04-16 12:27 | 60.94861 | 24.85490 | 19477 ft | 383 kts | 9° |
| 2026-04-16 12:27 | 60.97551 | 24.86128 | 19989 ft | 386 kts | 9° |
| 2026-04-16 12:27 | 61.00230 | 24.86767 | 20424 ft | 390 kts | 9° |
| 2026-04-16 12:27 | 61.02826 | 24.87387 | 20847 ft | 392 kts | 8° |
| 2026-04-16 12:28 | 61.05651 | 24.88064 | 21304 ft | 394 kts | 9° |
| 2026-04-16 12:28 | 61.08384 | 24.88714 | 21760 ft | 396 kts | 8° |
| 2026-04-16 12:28 | 61.11127 | 24.89366 | 22203 ft | 398 kts | 9° |
| 2026-04-16 12:28 | 61.13886 | 24.90023 | 22618 ft | 400 kts | 8° |
| 2026-04-16 12:29 | 61.16649 | 24.90683 | 23099 ft | 400 kts | 8° |
| 2026-04-16 12:29 | 61.19421 | 24.91347 | 23541 ft | 402 kts | 9° |
| 2026-04-16 12:29 | 61.22200 | 24.92013 | 23940 ft | 403 kts | 8° |
| 2026-04-16 12:29 | 61.24994 | 24.92685 | 24288 ft | 405 kts | 8° |
| 2026-04-16 12:30 | 61.27802 | 24.93362 | 24618 ft | 408 kts | 8° |
| 2026-04-16 12:30 | 61.30629 | 24.94046 | 24952 ft | 410 kts | 9° |
| 2026-04-16 12:30 | 61.33479 | 24.94744 | 25305 ft | 413 kts | 8° |
| 2026-04-16 12:30 | 61.36327 | 24.95444 | 25624 ft | 415 kts | 8° |
| 2026-04-16 12:31 | 61.39207 | 24.96148 | 25962 ft | 417 kts | 9° |
| 2026-04-16 12:31 | 61.42095 | 24.96854 | 26295 ft | 420 kts | 8° |
| 2026-04-16 12:31 | 61.45011 | 24.97570 | 26623 ft | 422 kts | 7° |
| 2026-04-16 12:31 | 61.47922 | 24.98287 | 27000 ft | 424 kts | 7° |
| 2026-04-16 12:32 | 61.50854 | 24.99004 | 27342 ft | 426 kts | 7° |
| 2026-04-16 12:32 | 61.53811 | 24.99725 | 27665 ft | 429 kts | 7° |
| 2026-04-16 12:32 | 61.56782 | 25.00451 | 27996 ft | 431 kts | 7° |
| 2026-04-16 12:32 | 61.59767 | 25.01182 | 28317 ft | 433 kts | 7° |
| 2026-04-16 12:33 | 61.62787 | 25.01618 | 28618 ft | 437 kts | 1° |
| 2026-04-16 12:33 | 61.65832 | 25.01724 | 28932 ft | 439 kts | 1° |
| 2026-04-16 12:33 | 61.68927 | 25.01832 | 29256 ft | 441 kts | 1° |
| 2026-04-16 12:33 | 61.72008 | 25.01941 | 29555 ft | 443 kts | 1° |
| 2026-04-16 12:34 | 61.75080 | 25.02058 | 29811 ft | 446 kts | 1° |
| 2026-04-16 12:34 | 61.78191 | 25.02185 | 30152 ft | 447 kts | 0° |
| 2026-04-16 12:34 | 61.81299 | 25.02310 | 30451 ft | 448 kts | 360° |
| 2026-04-16 12:34 | 61.84425 | 25.02428 | 30647 ft | 451 kts | 0° |
| 2026-04-16 12:35 | 61.87567 | 25.02546 | 30897 ft | 453 kts | 359° |
| 2026-04-16 12:35 | 61.90722 | 25.02665 | 31153 ft | 454 kts | 0° |
| 2026-04-16 12:35 | 61.93888 | 25.02785 | 31368 ft | 455 kts | 359° |
| 2026-04-16 12:35 | 61.97058 | 25.02906 | 31571 ft | 457 kts | 1° |
| 2026-04-16 12:36 | 62.00238 | 25.03034 | 31895 ft | 455 kts | 359° |
| 2026-04-16 12:36 | 62.03397 | 25.03160 | 32237 ft | 454 kts | 1° |
| 2026-04-16 12:36 | 62.06554 | 25.03281 | 32546 ft | 453 kts | 359° |
| 2026-04-16 12:36 | 62.09702 | 25.03398 | 32871 ft | 452 kts | 360° |
| 2026-04-16 12:37 | 62.12839 | 25.03514 | 33303 ft | 448 kts | 359° |
| 2026-04-16 12:37 | 62.15936 | 25.03627 | 33707 ft | 445 kts | 359° |
| 2026-04-16 12:37 | 62.19028 | 25.03743 | 34066 ft | 443 kts | 359° |
| 2026-04-16 12:37 | 62.22117 | 25.03860 | 34381 ft | 442 kts | 359° |
| 2026-04-16 12:38 | 62.25187 | 25.03978 | 34640 ft | 441 kts | 360° |
| 2026-04-16 12:38 | 62.28249 | 25.04094 | 34882 ft | 441 kts | 359° |
| 2026-04-16 12:38 | 62.31322 | 25.04213 | 35113 ft | 441 kts | 359° |
| 2026-04-16 12:38 | 62.34385 | 25.04333 | 35329 ft | 441 kts | 360° |
| 2026-04-16 12:39 | 62.37429 | 25.04452 | 35552 ft | 441 kts | 359° |
| 2026-04-16 12:39 | 62.40538 | 25.04576 | 35780 ft | 440 kts | 0° |
| 2026-04-16 12:39 | 62.43599 | 25.04701 | 35985 ft | 440 kts | 1° |
| 2026-04-16 12:39 | 62.46664 | 25.04825 | 36168 ft | 441 kts | 359° |
| 2026-04-16 12:40 | 62.52747 | 25.05055 | 36236 ft | 435 kts | 359° |
| 2026-04-16 12:40 | 62.58790 | 25.05289 | 36237 ft | 434 kts | 0° |
| 2026-04-16 12:41 | 62.64825 | 25.05529 | 36236 ft | 434 kts | 359° |
| 2026-04-16 12:41 | 62.70868 | 25.05752 | 36236 ft | 434 kts | 0° |
| 2026-04-16 12:42 | 62.76944 | 25.05989 | 36239 ft | 433 kts | 359° |
| 2026-04-16 12:42 | 62.82923 | 25.06237 | 36237 ft | 433 kts | 359° |
| 2026-04-16 12:43 | 62.87969 | 25.06444 | 36237 ft | 432 kts | 359° |
| 2026-04-16 12:43 | 62.93997 | 25.06683 | 36236 ft | 432 kts | 359° |
| 2026-04-16 12:44 | 63.00042 | 25.06929 | 36239 ft | 432 kts | 359° |
| 2026-04-16 12:44 | 63.06057 | 25.07170 | 36238 ft | 432 kts | 359° |
| 2026-04-16 12:45 | 63.12079 | 25.07415 | 36248 ft | 433 kts | 359° |
| 2026-04-16 12:45 | 63.18098 | 25.07653 | 36248 ft | 433 kts | 359° |
| 2026-04-16 12:46 | 63.24116 | 25.07894 | 36246 ft | 433 kts | 359° |
| 2026-04-16 12:46 | 63.30179 | 25.08144 | 36247 ft | 433 kts | 359° |
| 2026-04-16 12:47 | 63.36211 | 25.08386 | 36246 ft | 433 kts | 359° |
| 2026-04-16 12:47 | 63.42245 | 25.08641 | 36261 ft | 433 kts | 359° |
| 2026-04-16 12:48 | 63.48271 | 25.08903 | 36263 ft | 433 kts | 359° |
| 2026-04-16 12:48 | 63.54288 | 25.09146 | 36263 ft | 432 kts | 359° |
| 2026-04-16 12:49 | 63.60298 | 25.09375 | 36264 ft | 431 kts | 359° |
| 2026-04-16 12:49 | 63.66299 | 25.09620 | 36261 ft | 431 kts | 359° |
| 2026-04-16 12:50 | 63.72300 | 25.09888 | 36265 ft | 431 kts | 359° |
| 2026-04-16 12:50 | 63.78294 | 25.10141 | 36278 ft | 430 kts | 359° |
| 2026-04-16 12:51 | 63.84274 | 25.10382 | 36281 ft | 429 kts | 359° |
| 2026-04-16 12:51 | 63.90254 | 25.10614 | 36284 ft | 429 kts | 359° |
| 2026-04-16 12:52 | 63.96225 | 25.10866 | 36286 ft | 429 kts | 359° |
| 2026-04-16 12:52 | 64.02187 | 25.11129 | 36284 ft | 429 kts | 359° |
| 2026-04-16 12:53 | 64.08185 | 25.11393 | 36274 ft | 428 kts | 359° |
| 2026-04-16 12:53 | 64.14143 | 25.11628 | 36271 ft | 429 kts | 359° |
| 2026-04-16 12:54 | 64.20117 | 25.11878 | 36272 ft | 430 kts | 359° |
| 2026-04-16 12:54 | 64.26100 | 25.12145 | 36272 ft | 430 kts | 359° |
| 2026-04-16 12:55 | 64.32090 | 25.12415 | 36273 ft | 431 kts | 359° |
| 2026-04-16 12:55 | 64.38081 | 25.12673 | 36278 ft | 431 kts | 359° |
| 2026-04-16 12:56 | 64.44081 | 25.12920 | 36296 ft | 431 kts | 359° |
| 2026-04-16 12:56 | 64.50065 | 25.12990 | 36305 ft | 430 kts | 358° |
| 2026-04-16 12:57 | 64.56099 | 25.12931 | 36302 ft | 430 kts | 358° |
| 2026-04-16 12:57 | 64.62090 | 25.12880 | 36301 ft | 430 kts | 358° |
| 2026-04-16 12:58 | 64.68069 | 25.12875 | 36301 ft | 431 kts | 358° |
| 2026-04-16 12:58 | 64.74074 | 25.12898 | 36300 ft | 430 kts | 358° |
| 2026-04-16 12:59 | 64.80054 | 25.12913 | 36331 ft | 429 kts | 358° |
| 2026-04-16 13:00 | 64.88974 | 25.12909 | 36329 ft | 423 kts | 358° |
| 2026-04-16 13:00 | 64.94846 | 25.12915 | 36327 ft | 421 kts | 358° |
| 2026-04-16 13:01 | 65.00699 | 25.12922 | 36318 ft | 420 kts | 358° |
| 2026-04-16 13:01 | 65.06544 | 25.12916 | 36317 ft | 419 kts | 358° |
| 2026-04-16 13:02 | 65.12374 | 25.12912 | 36337 ft | 418 kts | 358° |
| 2026-04-16 13:02 | 65.18179 | 25.12907 | 36327 ft | 416 kts | 358° |
| 2026-04-16 13:03 | 65.23964 | 25.12879 | 36317 ft | 415 kts | 358° |
| 2026-04-16 13:03 | 65.29735 | 25.12847 | 36313 ft | 414 kts | 358° |
| 2026-04-16 13:04 | 65.35539 | 25.12815 | 36307 ft | 414 kts | 358° |
| 2026-04-16 13:04 | 65.41300 | 25.12805 | 36305 ft | 414 kts | 358° |
| 2026-04-16 13:05 | 65.47071 | 25.12781 | 36325 ft | 416 kts | 358° |
| 2026-04-16 13:05 | 65.52812 | 25.12748 | 36293 ft | 411 kts | 357° |
| 2026-04-16 13:06 | 65.58522 | 25.12707 | 36290 ft | 410 kts | 357° |
| 2026-04-16 13:06 | 65.64201 | 25.12675 | 36287 ft | 410 kts | 357° |
| 2026-04-16 13:07 | 65.69978 | 25.12655 | 36283 ft | 410 kts | 357° |
| 2026-04-16 13:07 | 65.75683 | 25.12632 | 36286 ft | 409 kts | 357° |
| 2026-04-16 13:08 | 65.81407 | 25.12609 | 36281 ft | 409 kts | 357° |
| 2026-04-16 13:08 | 65.87104 | 25.12582 | 36266 ft | 410 kts | 357° |
| 2026-04-16 13:09 | 65.92830 | 25.12539 | 35991 ft | 413 kts | 357° |
| 2026-04-16 13:09 | 65.95716 | 25.12515 | 34516 ft | 417 kts | 357° |
| 2026-04-16 13:09 | 65.98634 | 25.12493 | 32885 ft | 420 kts | 357° |
| 2026-04-16 13:09 | 66.00545 | 25.12485 | 32415 ft | 407 kts | 357° |
| 2026-04-16 13:10 | 66.04150 | 25.12484 | 32251 ft | 368 kts | 357° |
| 2026-04-16 13:10 | 66.05858 | 25.12485 | 31996 ft | 360 kts | 357° |
| 2026-04-16 13:10 | 66.09185 | 25.12467 | 31521 ft | 362 kts | 357° |
| 2026-04-16 13:10 | 66.10886 | 25.12447 | 31190 ft | 360 kts | 356° |
| 2026-04-16 13:11 | 66.13376 | 25.12238 | 30716 ft | 356 kts | 354° |
| 2026-04-16 13:11 | 66.15838 | 25.11840 | 30252 ft | 353 kts | 353° |
| 2026-04-16 13:11 | 66.18273 | 25.11353 | 29729 ft | 348 kts | 352° |
| 2026-04-16 13:11 | 66.20665 | 25.10853 | 29270 ft | 343 kts | 352° |
| 2026-04-16 13:12 | 66.23034 | 25.10371 | 28824 ft | 340 kts | 352° |
| 2026-04-16 13:12 | 66.25393 | 25.09916 | 28346 ft | 339 kts | 352° |
| 2026-04-16 13:12 | 66.27742 | 25.09486 | 27931 ft | 339 kts | 353° |
| 2026-04-16 13:12 | 66.30085 | 25.09072 | 27490 ft | 337 kts | 353° |
| 2026-04-16 13:13 | 66.32453 | 25.08662 | 27056 ft | 336 kts | 353° |
| 2026-04-16 13:13 | 66.34780 | 25.08257 | 26630 ft | 335 kts | 352° |
| 2026-04-16 13:13 | 66.37099 | 25.07849 | 26221 ft | 333 kts | 352° |
| 2026-04-16 13:13 | 66.39405 | 25.07444 | 25812 ft | 332 kts | 352° |
| 2026-04-16 13:14 | 66.41708 | 25.07034 | 25411 ft | 331 kts | 352° |
| 2026-04-16 13:14 | 66.43999 | 25.06623 | 25005 ft | 329 kts | 352° |
| 2026-04-16 13:14 | 66.46277 | 25.06216 | 24603 ft | 328 kts | 352° |
| 2026-04-16 13:14 | 66.48553 | 25.05813 | 24203 ft | 327 kts | 352° |
| 2026-04-16 13:15 | 66.50823 | 25.05415 | 23783 ft | 326 kts | 352° |
| 2026-04-16 13:15 | 66.53080 | 25.05011 | 23379 ft | 324 kts | 352° |
| 2026-04-16 13:15 | 66.55314 | 25.04610 | 22939 ft | 320 kts | 352° |
| 2026-04-16 13:15 | 66.57552 | 25.04210 | 22529 ft | 313 kts | 351° |
| 2026-04-16 13:16 | 66.59698 | 25.03823 | 22123 ft | 309 kts | 351° |
| 2026-04-16 13:16 | 66.61827 | 25.03445 | 21733 ft | 306 kts | 351° |
| 2026-04-16 13:16 | 66.63943 | 25.03065 | 21340 ft | 303 kts | 351° |
| 2026-04-16 13:16 | 66.66012 | 25.02686 | 20954 ft | 302 kts | 351° |
| 2026-04-16 13:17 | 66.68130 | 25.02299 | 20545 ft | 300 kts | 351° |
| 2026-04-16 13:17 | 66.70206 | 25.01921 | 20155 ft | 298 kts | 351° |
| 2026-04-16 13:17 | 66.72271 | 25.01548 | 19752 ft | 297 kts | 351° |
| 2026-04-16 13:17 | 66.74327 | 25.01182 | 19349 ft | 295 kts | 351° |
| 2026-04-16 13:18 | 66.76370 | 25.00815 | 18973 ft | 294 kts | 351° |
| 2026-04-16 13:18 | 66.78401 | 25.00446 | 18587 ft | 292 kts | 351° |
| 2026-04-16 13:18 | 66.80420 | 25.00077 | 18175 ft | 290 kts | 351° |
| 2026-04-16 13:18 | 66.82427 | 24.99709 | 17789 ft | 288 kts | 351° |
| 2026-04-16 13:19 | 66.84420 | 24.99340 | 17405 ft | 287 kts | 351° |
| 2026-04-16 13:19 | 66.86407 | 24.98972 | 17029 ft | 286 kts | 351° |
| 2026-04-16 13:19 | 66.88383 | 24.98610 | 16669 ft | 284 kts | 351° |
| 2026-04-16 13:19 | 66.90349 | 24.98246 | 16336 ft | 282 kts | 351° |
| 2026-04-16 13:20 | 66.92293 | 24.97887 | 15926 ft | 278 kts | 352° |
| 2026-04-16 13:20 | 66.94225 | 24.97532 | 15576 ft | 278 kts | 352° |
| 2026-04-16 13:20 | 66.96148 | 24.97177 | 15218 ft | 277 kts | 352° |
| 2026-04-16 13:20 | 66.98091 | 24.96819 | 14861 ft | 276 kts | 352° |
| 2026-04-16 13:21 | 67.00004 | 24.96463 | 14499 ft | 275 kts | 352° |
| 2026-04-16 13:21 | 67.01907 | 24.96105 | 14141 ft | 274 kts | 352° |
| 2026-04-16 13:21 | 67.03803 | 24.95752 | 13747 ft | 273 kts | 353° |
| 2026-04-16 13:21 | 67.05689 | 24.95398 | 13385 ft | 271 kts | 353° |
| 2026-04-16 13:22 | 67.07567 | 24.95047 | 13016 ft | 270 kts | 353° |
| 2026-04-16 13:22 | 67.09434 | 24.94701 | 12663 ft | 268 kts | 353° |
| 2026-04-16 13:22 | 67.11292 | 24.94358 | 12298 ft | 267 kts | 353° |
| 2026-04-16 13:22 | 67.13134 | 24.94008 | 11943 ft | 265 kts | 353° |
| 2026-04-16 13:23 | 67.14972 | 24.93658 | 11582 ft | 264 kts | 354° |
| 2026-04-16 13:23 | 67.16799 | 24.93313 | 11211 ft | 263 kts | 354° |
| 2026-04-16 13:23 | 67.18618 | 24.92973 | 10852 ft | 261 kts | 354° |
| 2026-04-16 13:23 | 67.20444 | 24.92631 | 10547 ft | 258 kts | 354° |
| 2026-04-16 13:24 | 67.22241 | 24.92293 | 10474 ft | 259 kts | 354° |
| 2026-04-16 13:24 | 67.24042 | 24.91952 | 10370 ft | 260 kts | 354° |
| 2026-04-16 13:24 | 67.25847 | 24.91833 | 10208 ft | 261 kts | 2° |
| 2026-04-16 13:24 | 67.27676 | 24.92146 | 9664 ft | 262 kts | 2° |
| 2026-04-16 13:25 | 67.29469 | 24.92494 | 9161 ft | 254 kts | 2° |
| 2026-04-16 13:25 | 67.31220 | 24.92842 | 8395 ft | 250 kts | 2° |
| 2026-04-16 13:25 | 67.32963 | 24.93187 | 7831 ft | 251 kts | 2° |
| 2026-04-16 13:25 | 67.34701 | 24.93534 | 7297 ft | 251 kts | 2° |
| 2026-04-16 13:26 | 67.36443 | 24.93882 | 6752 ft | 254 kts | 2° |
| 2026-04-16 13:26 | 67.38211 | 24.94227 | 6210 ft | 255 kts | 2° |
| 2026-04-16 13:26 | 67.39996 | 24.94571 | 5764 ft | 253 kts | 3° |
| 2026-04-16 13:26 | 67.41725 | 24.94908 | 5322 ft | 251 kts | 3° |
| 2026-04-16 13:27 | 67.43458 | 24.95250 | 5111 ft | 241 kts | 3° |
| 2026-04-16 13:27 | 67.45086 | 24.95571 | 4996 ft | 228 kts | 3° |
| 2026-04-16 13:27 | 67.46606 | 24.95869 | 4906 ft | 213 kts | 3° |
| 2026-04-16 13:27 | 67.48040 | 24.96145 | 4801 ft | 197 kts | 2° |
| 2026-04-16 13:28 | 67.49357 | 24.96394 | 4710 ft | 183 kts | 3° |
| 2026-04-16 13:28 | 67.50587 | 24.96628 | 4626 ft | 173 kts | 2° |
| 2026-04-16 13:28 | 67.51773 | 24.96365 | 4564 ft | 171 kts | 349° |
| 2026-04-16 13:28 | 67.52947 | 24.95713 | 4427 ft | 177 kts | 347° |
| 2026-04-16 13:29 | 67.54153 | 24.94974 | 4191 ft | 175 kts | 346° |
| 2026-04-16 13:29 | 67.55317 | 24.94237 | 3931 ft | 169 kts | 346° |
| 2026-04-16 13:29 | 67.56445 | 24.93516 | 3664 ft | 165 kts | 346° |
| 2026-04-16 13:29 | 67.57544 | 24.92810 | 3409 ft | 161 kts | 347° |
| 2026-04-16 13:30 | 67.58613 | 24.92122 | 3157 ft | 154 kts | 347° |
| 2026-04-16 13:30 | 67.59606 | 24.91482 | 2931 ft | 141 kts | 346° |
| 2026-04-16 13:30 | 67.60539 | 24.90881 | 2705 ft | 135 kts | 346° |
| 2026-04-16 13:30 | 67.61446 | 24.90295 | 2497 ft | 133 kts | 346° |
| 2026-04-16 13:31 | 67.62340 | 24.89718 | 2276 ft | 132 kts | 347° |
| 2026-04-16 13:31 | 67.63235 | 24.89140 | 2068 ft | 132 kts | 346° |
| 2026-04-16 13:31 | 67.64135 | 24.88558 | 1854 ft | 131 kts | 347° |
| 2026-04-16 13:31 | 67.65013 | 24.87990 | 1649 ft | 129 kts | 347° |
| 2026-04-16 13:32 | 67.65872 | 24.87433 | 1433 ft | 131 kts | 348° |
| 2026-04-16 13:32 | 67.66766 | 24.86847 | 1218 ft | 131 kts | 348° |
| 2026-04-16 13:32 | 67.67648 | 24.86281 | 1029 ft | 131 kts | 346° |
| 2026-04-16 13:32 | 67.68550 | 24.85696 | 813 ft | 131 kts | 346° |
| 2026-04-16 13:33 | 67.69436 | 24.85112 | 644 ft | 126 kts | 347° |
| 2026-04-16 13:33 | 67.70158 | 24.84656 | 640 ft | 78 kts | 346° |
| 2026-04-16 13:33 | 67.70509 | 24.84422 | 643 ft | 30 kts | 346° |
| 2026-04-16 13:33 | 67.70607 | 24.84359 | 644 ft | 16 kts | 347° |
| 2026-04-16 13:34 | 67.70704 | 24.84422 | 640 ft | 15 kts | 46° |
| 2026-04-16 13:34 | 67.70730 | 24.84669 | 643 ft | 14 kts | 106° |
| 2026-04-16 13:34 | 67.70654 | 24.84775 | 643 ft | 12 kts | 165° |
| 2026-04-16 13:34 | 67.70574 | 24.84830 | 640 ft | 12 kts | 165° |
| 2026-04-16 13:35 | 67.70497 | 24.84883 | 642 ft | 11 kts | 166° |
| 2026-04-16 13:35 | 67.70422 | 24.84928 | 644 ft | 11 kts | 167° |
| 2026-04-16 13:35 | 67.70353 | 24.84970 | 643 ft | 10 kts | 167° |
| 2026-04-16 13:35 | 67.70292 | 24.85007 | 641 ft | 8 kts | 167° |
| 2026-04-16 13:36 | 67.70238 | 24.85039 | 640 ft | 9 kts | 167° |
| 2026-04-16 13:36 | 67.70139 | 24.85101 | 641 ft | 17 kts | 166° |
| 2026-04-16 13:36 | 67.70029 | 24.85177 | 641 ft | 16 kts | 166° |
| 2026-04-16 13:36 | 67.69921 | 24.85249 | 641 ft | 16 kts | 165° |
| 2026-04-16 13:37 | 67.69814 | 24.85326 | 640 ft | 16 kts | 161° |
| 2026-04-16 13:37 | 67.69707 | 24.85404 | 637 ft | 16 kts | 167° |
| 2026-04-16 13:37 | 67.69635 | 24.85474 | 638 ft | 8 kts | 139° |
| 2026-04-16 13:37 | 67.69618 | 24.85593 | 638 ft | 6 kts | 123° |
| 2026-04-16 13:38 | 67.69606 | 24.85645 | 640 ft | 0 kts | 125° |
| 2026-04-16 13:38 | 67.69606 | 24.85646 | 640 ft | 0 kts | 125° |
| 2026-04-16 13:38 | 67.65440 | 24.87713 | 640 ft | 114 kts | 347° |